Time;durP1;ratioP1;P1;durP2;ratioP2;P2;SDS_P1;SDS_P2;PMS_P1;PMS_P2;Temp;Humidity;BMP_temperature;BMP_pressure;BME280_temperature;BME280_humidity;BME280_pressure;Samples;Min_cycle;Max_cycle;Signal;HPM_P1;HPM_P2
2021/03/24 00:01:34;;;;;;;18.30;10.37;;;2.90;99.90;;;;;;5013758;28;20418;-66
2021/03/24 00:04:00;;;;;;;16.20;9.90;;;2.90;99.90;;;;;;5013906;28;20423;-65
2021/03/24 00:06:26;;;;;;;20.17;10.50;;;2.80;99.90;;;;;;5013410;28;20226;-65
2021/03/24 00:08:51;;;;;;;13.47;9.57;;;2.80;99.90;;;;;;5013681;28;20239;-65
2021/03/24 00:11:17;;;;;;;17.53;9.70;;;2.80;99.90;;;;;;5013706;28;20275;-66
2021/03/24 00:13:43;;;;;;;16.07;9.53;;;2.80;99.90;;;;;;5013622;28;20219;-66
2021/03/24 00:16:10;;;;;;;15.77;10.50;;;2.70;99.90;;;;;;5013546;28;20228;-67
2021/03/24 00:18:36;;;;;;;15.67;9.37;;;2.70;99.90;;;;;;5013491;28;20247;-66
2021/03/24 00:21:02;;;;;;;13.07;9.63;;;2.80;99.90;;;;;;5013308;28;20415;-66
2021/03/24 00:23:27;;;;;;;13.33;8.83;;;2.70;99.90;;;;;;5013495;28;20176;-68
2021/03/24 00:25:54;;;;;;;16.20;9.80;;;2.80;99.90;;;;;;5013400;28;20426;-67
2021/03/24 00:28:20;;;;;;;14.67;9.47;;;2.70;99.90;;;;;;5013150;28;20461;-68
2021/03/24 00:30:47;;;;;;;11.50;8.97;;;2.70;99.90;;;;;;5013280;28;20442;-65
2021/03/24 00:33:17;;;;;;;14.87;9.80;;;2.60;99.90;;;;;;5013254;28;20766;-65
2021/03/24 00:35:43;;;;;;;12.80;9.23;;;2.60;99.90;;;;;;5012996;28;20466;-66
2021/03/24 00:38:10;;;;;;;16.33;10.30;;;2.60;99.90;;;;;;5013005;28;20795;-66
2021/03/24 00:40:39;;;;;;;14.33;9.03;;;2.60;99.90;;;;;;5011801;28;20181;-68
2021/03/24 00:43:06;;;;;;;13.93;9.73;;;2.60;99.90;;;;;;5012976;28;20800;-67
2021/03/24 00:45:33;;;;;;;15.63;9.50;;;2.60;99.90;;;;;;5012989;28;20503;-66
2021/03/24 00:47:59;;;;;;;15.73;10.00;;;2.50;99.90;;;;;;5012839;28;20459;-67
2021/03/24 00:50:27;;;;;;;16.13;9.43;;;2.50;99.90;;;;;;5011780;28;20914;-68
2021/03/24 00:52:53;;;;;;;16.60;9.60;;;2.50;99.90;;;;;;4995263;28;20424;-68
2021/03/24 00:55:19;;;;;;;15.73;9.87;;;2.50;99.90;;;;;;5013177;28;20922;-68
2021/03/24 00:57:45;;;;;;;12.73;8.87;;;2.50;99.90;;;;;;5012878;28;20176;-66
2021/03/24 01:00:29;;;;;;;15.73;10.47;;;2.50;99.90;;;;;;5012685;28;20223;-65
2021/03/24 01:02:54;;;;;;;13.90;9.97;;;2.50;99.90;;;;;;5011750;28;20404;-67
2021/03/24 01:05:22;;;;;;;15.03;9.17;;;2.50;99.90;;;;;;5012605;28;20777;-67
2021/03/24 01:07:49;;;;;;;16.93;9.93;;;2.50;99.90;;;;;;5012913;28;20188;-67
2021/03/24 01:10:25;;;;;;;13.97;9.67;;;2.50;99.90;;;;;;5012491;28;20461;-68
2021/03/24 01:12:58;;;;;;;19.60;10.97;;;2.50;99.90;;;;;;5012558;28;20418;-69
2021/03/24 01:15:25;;;;;;;17.03;10.37;;;2.40;99.90;;;;;;5012355;28;20478;-68
2021/03/24 01:17:52;;;;;;;15.93;10.47;;;2.40;99.90;;;;;;5012435;28;20423;-66
2021/03/24 01:20:20;;;;;;;15.03;9.97;;;2.40;99.90;;;;;;5011214;28;20414;-66
2021/03/24 01:22:46;;;;;;;17.10;9.93;;;2.40;99.90;;;;;;5012314;28;21908;-67
2021/03/24 01:25:12;;;;;;;14.77;10.20;;;2.30;99.90;;;;;;5011129;28;20510;-66
2021/03/24 01:27:37;;;;;;;16.63;10.17;;;2.30;99.90;;;;;;5012224;28;20589;-67
2021/03/24 01:30:05;;;;;;;17.43;10.07;;;2.20;99.90;;;;;;5012237;28;20211;-65
2021/03/24 01:32:31;;;;;;;15.80;10.13;;;2.30;99.90;;;;;;5011902;28;20211;-68
2021/03/24 01:34:56;;;;;;;16.43;9.63;;;2.40;99.90;;;;;;5012212;28;20925;-66
2021/03/24 01:37:22;;;;;;;14.93;9.70;;;2.40;99.90;;;;;;5013417;28;20336;-67
2021/03/24 01:39:48;;;;;;;18.70;11.70;;;2.40;99.90;;;;;;5011744;28;20259;-68
2021/03/24 01:42:13;;;;;;;15.33;9.93;;;2.30;99.90;;;;;;5011901;28;20506;-68
2021/03/24 01:45:01;;;;;;;18.73;9.93;;;2.30;99.90;;;;;;5012237;28;20260;-69
2021/03/24 01:47:29;;;;;;;14.70;9.97;;;2.30;99.90;;;;;;5011660;28;20192;-66
2021/03/24 01:49:55;;;;;;;17.03;9.60;;;2.40;99.90;;;;;;5011969;28;20426;-67
2021/03/24 01:52:22;;;;;;;15.37;9.97;;;2.50;99.90;;;;;;5011694;28;20945;-68
2021/03/24 01:54:47;;;;;;;13.13;9.33;;;2.60;99.90;;;;;;5011738;28;20427;-66
2021/03/24 01:57:21;;;;;;;13.17;9.03;;;2.60;99.90;;;;;;5011497;28;20465;-67
2021/03/24 01:59:48;;;;;;;12.87;9.13;;;2.60;99.90;;;;;;5011658;28;20610;-66
2021/03/24 02:02:18;;;;;;;15.90;9.33;;;2.60;99.90;;;;;;5010066;28;20797;-67
2021/03/24 02:04:46;;;;;;;14.23;9.27;;;2.60;99.90;;;;;;5011495;28;20451;-65
2021/03/24 02:07:48;;;;;;;14.73;8.97;;;2.80;99.90;;;;;;5011636;28;20419;-68
2021/03/24 02:10:13;;;;;;;16.00;9.87;;;2.80;99.90;;;;;;5006990;28;20543;-68
2021/03/24 02:13:00;;;;;;;15.37;9.70;;;2.90;99.90;;;;;;5011122;28;20503;-68
2021/03/24 02:15:31;;;;;;;15.83;9.97;;;2.90;99.90;;;;;;5011354;28;20176;-66
2021/03/24 02:17:58;;;;;;;14.57;9.83;;;3.00;99.90;;;;;;5011594;28;20412;-65
2021/03/24 02:20:31;;;;;;;13.70;9.50;;;2.90;99.90;;;;;;5011165;28;20455;-65
2021/03/24 02:23:04;;;;;;;15.10;8.93;;;2.80;99.90;;;;;;5011127;28;20443;-65
2021/03/24 02:25:46;;;;;;;16.20;8.87;;;2.80;99.90;;;;;;5010735;28;20427;-66
2021/03/24 02:28:14;;;;;;;17.83;9.37;;;2.80;99.90;;;;;;5011155;28;20431;-66
2021/03/24 02:30:43;;;;;;;15.57;9.83;;;2.70;99.90;;;;;;5010875;28;20451;-66
2021/03/24 02:33:09;;;;;;;11.93;8.77;;;2.60;99.90;;;;;;5010881;28;20416;-65
2021/03/24 02:35:40;;;;;;;12.73;8.93;;;2.40;99.90;;;;;;5012112;28;20416;-68
2021/03/24 02:38:09;;;;;;;12.90;9.13;;;2.30;99.90;;;;;;5030687;28;20541;-66
2021/03/24 02:40:35;;;;;;;14.37;8.70;;;2.30;99.90;;;;;;5030420;28;20653;-66
2021/03/24 02:43:03;;;;;;;16.23;9.07;;;2.20;99.90;;;;;;5030372;28;20756;-66
2021/03/24 02:45:32;;;;;;;13.80;8.37;;;2.20;99.90;;;;;;5030275;28;20469;-67
2021/03/24 02:48:03;;;;;;;12.70;8.93;;;2.10;99.90;;;;;;5030132;28;20411;-68
2021/03/24 02:50:30;;;;;;;15.60;9.53;;;2.00;99.90;;;;;;5013055;28;20410;-65
2021/03/24 02:52:58;;;;;;;14.87;9.23;;;2.00;99.90;;;;;;5030418;28;20896;-65
2021/03/24 02:55:26;;;;;;;15.90;9.67;;;2.00;99.90;;;;;;5030193;28;20497;-65
2021/03/24 02:57:51;;;;;;;13.63;9.03;;;1.90;99.90;;;;;;5030406;28;20414;-65
2021/03/24 03:00:20;;;;;;;12.00;9.10;;;1.90;99.90;;;;;;5030012;28;20421;-65
2021/03/24 03:02:51;;;;;;;14.23;9.37;;;1.90;99.90;;;;;;5030292;28;20179;-66
2021/03/24 03:05:23;;;;;;;12.07;9.23;;;1.80;99.90;;;;;;5010290;28;20502;-67
2021/03/24 03:07:56;;;;;;;14.50;9.17;;;1.70;99.90;;;;;;5010792;28;20506;-67
2021/03/24 03:11:00;;;;;;;14.70;9.27;;;1.70;99.90;;;;;;5015844;28;20765;-66
2021/03/24 03:13:57;;;;;;;18.17;10.20;;;1.60;99.90;;;;;;4987216;28;20843;-68
2021/03/24 03:16:37;;;;;;;15.10;9.10;;;1.60;99.90;;;;;;5000472;28;20464;-67
2021/03/24 03:19:15;;;;;;;15.57;9.90;;;1.50;99.90;;;;;;5010375;28;20910;-68
2021/03/24 03:21:54;;;;;;;17.03;9.83;;;1.50;99.90;;;;;;5010324;28;20415;-66
2021/03/24 03:24:22;;;;;;;17.67;9.77;;;1.50;99.90;;;;;;5010599;28;20423;-68
2021/03/24 03:26:50;;;;;;;14.27;9.13;;;1.50;99.90;;;;;;4992564;28;20757;-67
2021/03/24 03:29:19;;;;;;;17.37;10.00;;;1.50;99.90;;;;;;5029116;28;20458;-68
2021/03/24 03:31:49;;;;;;;14.70;9.83;;;1.50;99.90;;;;;;5029948;28;20448;-69
2021/03/24 03:34:21;;;;;;;19.60;10.10;;;1.50;99.90;;;;;;5029747;28;20418;-69
2021/03/24 03:36:51;;;;;;;17.40;9.60;;;1.50;99.90;;;;;;5021148;28;20462;-69
2021/03/24 03:39:22;;;;;;;15.93;9.33;;;1.50;99.90;;;;;;5010266;28;20419;-67
2021/03/24 03:41:48;;;;;;;16.80;10.27;;;1.50;99.90;;;;;;5010159;28;20433;-68
2021/03/24 03:44:15;;;;;;;16.03;9.50;;;1.50;99.90;;;;;;5010006;28;20502;-67
2021/03/24 03:46:48;;;;;;;15.67;9.90;;;1.50;99.90;;;;;;5010154;28;20423;-70
2021/03/24 03:49:14;;;;;;;14.70;8.77;;;1.40;99.90;;;;;;5010225;28;20985;-68
2021/03/24 03:52:24;;;;;;;14.93;9.23;;;1.40;99.90;;;;;;5010113;28;20510;-69
2021/03/24 03:54:57;;;;;;;16.47;9.40;;;1.40;99.90;;;;;;4972199;28;21978;-69
2021/03/24 03:57:55;;;;;;;16.10;10.33;;;1.40;99.90;;;;;;5009869;28;20443;-69
2021/03/24 04:00:35;;;;;;;14.13;9.60;;;1.40;99.90;;;;;;4992190;28;20502;-67
2021/03/24 04:03:21;;;;;;;18.70;9.70;;;1.40;99.90;;;;;;5010164;28;20465;-69
2021/03/24 04:06:03;;;;;;;15.10;10.23;;;1.40;99.90;;;;;;5009962;28;20419;-69
2021/03/24 04:08:33;;;;;;;17.73;10.17;;;1.40;99.90;;;;;;5010055;28;20419;-66
2021/03/24 04:11:05;;;;;;;18.43;9.37;;;1.40;99.90;;;;;;5010321;28;20415;-70
2021/03/24 04:13:34;;;;;;;16.33;9.83;;;1.50;99.90;;;;;;5010232;28;20760;-69
2021/03/24 04:16:02;;;;;;;18.23;10.03;;;1.50;99.90;;;;;;5010037;28;20782;-67
2021/03/24 04:18:39;;;;;;;16.93;9.90;;;1.50;99.90;;;;;;5010307;28;20421;-67
2021/03/24 04:21:07;;;;;;;20.07;9.37;;;1.40;99.90;;;;;;5010050;28;20462;-68
2021/03/24 04:23:37;;;;;;;17.53;10.23;;;1.40;99.90;;;;;;5009974;28;21887;-68
2021/03/24 04:26:19;;;;;;;15.03;9.23;;;1.40;99.90;;;;;;5012090;28;20423;-69
2021/03/24 04:28:48;;;;;;;16.53;9.63;;;1.40;99.90;;;;;;5013312;28;20780;-69
2021/03/24 04:31:16;;;;;;;14.20;9.23;;;1.40;99.90;;;;;;5013296;28;20458;-68
2021/03/24 04:33:42;;;;;;;16.07;9.93;;;1.30;99.90;;;;;;5013035;28;20454;-69
2021/03/24 04:36:35;;;;;;;15.47;10.17;;;1.30;99.90;;;;;;5011116;28;20455;-66
2021/03/24 04:39:12;;;;;;;16.37;9.17;;;1.20;99.90;;;;;;5012031;28;20259;-68
2021/03/24 04:41:42;;;;;;;19.67;10.00;;;1.20;99.90;;;;;;5013062;28;20726;-69
2021/03/24 04:44:15;;;;;;;14.80;9.97;;;1.10;99.90;;;;;;5012714;28;20403;-66
2021/03/24 04:46:43;;;;;;;19.50;10.57;;;1.10;99.90;;;;;;5013172;28;20443;-66
2021/03/24 04:49:14;;;;;;;16.17;10.23;;;1.10;99.90;;;;;;5012705;28;20408;-67
2021/03/24 04:51:41;;;;;;;17.33;10.10;;;1.10;99.90;;;;;;5012909;28;20420;-69
2021/03/24 04:54:33;;;;;;;16.33;10.20;;;1.10;99.90;;;;;;5012886;28;20778;-69
2021/03/24 04:57:04;;;;;;;15.93;10.30;;;1.10;99.90;;;;;;5009795;28;20466;-68
2021/03/24 04:59:41;;;;;;;18.63;11.10;;;1.10;99.90;;;;;;5012460;28;20419;-67
2021/03/24 05:02:14;;;;;;;17.13;9.60;;;1.20;99.90;;;;;;5012276;28;20810;-66
2021/03/24 05:04:45;;;;;;;18.60;9.60;;;1.10;99.90;;;;;;5012599;28;20924;-67
2021/03/24 05:07:11;;;;;;;18.07;10.57;;;1.20;99.90;;;;;;5012081;28;20420;-67
2021/03/24 05:09:36;;;;;;;13.90;9.67;;;1.20;99.90;;;;;;5012247;28;20426;-68
2021/03/24 05:12:16;;;;;;;17.10;9.87;;;1.20;99.90;;;;;;5012831;28;20172;-69
2021/03/24 05:15:25;;;;;;;18.43;10.80;;;1.20;99.90;;;;;;5012356;28;20187;-67
2021/03/24 05:17:53;;;;;;;16.30;9.07;;;1.50;99.90;;;;;;5011632;28;20431;-68
2021/03/24 05:20:36;;;;;;;19.50;11.47;;;1.50;99.90;;;;;;5012266;28;20813;-67
2021/03/24 05:23:06;;;;;;;15.77;9.27;;;1.50;99.90;;;;;;5012443;28;20432;-67
2021/03/24 05:25:38;;;;;;;16.47;10.23;;;1.40;99.90;;;;;;5012627;28;20415;-67
2021/03/24 05:28:20;;;;;;;16.13;9.80;;;1.40;99.90;;;;;;5012418;28;20423;-66
2021/03/24 05:31:12;;;;;;;17.67;9.90;;;1.40;99.90;;;;;;5012028;28;20850;-67
2021/03/24 05:33:42;;;;;;;18.20;10.63;;;1.40;99.90;;;;;;5012226;28;20931;-67
2021/03/24 05:36:59;;;;;;;17.40;10.30;;;1.50;99.90;;;;;;5012939;28;20462;-69
2021/03/24 05:39:33;;;;;;;18.20;9.77;;;1.50;99.90;;;;;;4998771;28;20438;-67
2021/03/24 05:42:28;;;;;;;16.37;10.00;;;1.70;99.90;;;;;;5011826;28;20407;-68
2021/03/24 05:45:19;;;;;;;15.73;9.80;;;1.50;99.90;;;;;;5011787;28;20936;-67
2021/03/24 05:48:03;;;;;;;16.27;10.03;;;1.50;99.90;;;;;;5012016;28;21244;-68
2021/03/24 05:50:46;;;;;;;14.63;9.37;;;1.40;99.90;;;;;;5011743;28;20546;-68
2021/03/24 05:53:43;;;;;;;23.80;10.43;;;1.30;99.90;;;;;;5011751;28;20407;-68
2021/03/24 05:56:36;;;;;;;18.10;9.53;;;1.30;99.90;;;;;;5011317;28;20463;-68
2021/03/24 05:59:28;;;;;;;19.23;10.37;;;1.30;99.90;;;;;;5011373;28;20420;-66
2021/03/24 06:01:57;;;;;;;18.50;11.33;;;1.30;99.90;;;;;;5011390;28;20434;-69
2021/03/24 06:04:29;;;;;;;17.80;11.10;;;1.30;99.90;;;;;;5011446;28;20419;-67
2021/03/24 06:07:13;;;;;;;15.60;10.03;;;1.30;99.90;;;;;;5011410;28;20756;-67
2021/03/24 06:10:06;;;;;;;17.40;10.87;;;1.50;99.90;;;;;;5011214;28;20980;-67
2021/03/24 06:12:59;;;;;;;17.17;10.53;;;1.50;99.90;;;;;;5011279;28;20442;-68
2021/03/24 06:16:22;;;;;;;17.57;10.13;;;1.60;99.90;;;;;;5011017;28;20902;-66
2021/03/24 06:18:54;;;;;;;19.33;10.97;;;1.70;99.90;;;;;;4931279;29;20448;-66
2021/03/24 06:21:44;;;;;;;15.77;10.93;;;2.00;99.90;;;;;;4931092;29;20431;-67
2021/03/24 06:24:15;;;;;;;19.83;10.63;;;2.00;99.90;;;;;;4931098;29;20754;-68
2021/03/24 06:27:17;;;;;;;20.80;11.50;;;2.10;99.90;;;;;;4931417;29;20423;-67
2021/03/24 06:30:01;;;;;;;16.83;10.80;;;2.10;99.90;;;;;;4931372;29;20422;-67
2021/03/24 06:32:41;;;;;;;14.83;10.07;;;2.20;99.90;;;;;;4931118;29;20430;-69
2021/03/24 06:35:34;;;;;;;18.90;9.90;;;2.30;99.90;;;;;;4931463;29;20913;-69
2021/03/24 06:38:27;;;;;;;29.47;11.53;;;2.40;99.90;;;;;;4948274;28;20509;-66
2021/03/24 06:41:17;;;;;;;19.93;10.80;;;2.40;99.90;;;;;;4950346;29;21144;-68
2021/03/24 06:44:30;;;;;;;18.93;10.70;;;2.60;99.90;;;;;;4950310;29;20429;-66
2021/03/24 06:47:12;;;;;;;18.43;11.23;;;2.70;99.90;;;;;;4933299;29;20429;-66
2021/03/24 06:49:58;;;;;;;19.07;11.10;;;2.80;99.90;;;;;;4980439;28;20717;-66
2021/03/24 06:53:07;;;;;;;13.73;9.90;;;3.00;99.90;;;;;;5023073;28;20411;-67
2021/03/24 06:56:05;;;;;;;16.73;10.63;;;3.10;99.90;;;;;;5011034;28;20415;-67
2021/03/24 06:59:04;;;;;;;15.03;10.63;;;3.30;99.90;;;;;;5030280;28;20777;-69
2021/03/24 07:01:46;;;;;;;18.73;10.93;;;3.60;99.90;;;;;;5010670;28;21147;-70
2021/03/24 07:04:53;;;;;;;18.53;10.30;;;3.60;99.90;;;;;;5029932;28;20841;-69
2021/03/24 07:07:38;;;;;;;17.37;9.73;;;3.60;99.90;;;;;;5021604;28;20442;-67
2021/03/24 07:10:28;;;;;;;16.97;11.00;;;3.70;99.90;;;;;;5029471;28;20490;-71
2021/03/24 07:13:19;;;;;;;23.17;10.77;;;3.80;99.90;;;;;;5030206;28;20434;-68
2021/03/24 07:16:01;;;;;;;18.20;10.83;;;3.90;99.90;;;;;;5030179;28;20951;-69
2021/03/24 07:18:45;;;;;;;19.20;10.37;;;4.00;99.90;;;;;;5030307;28;20939;-67
2021/03/24 07:21:21;;;;;;;15.67;10.13;;;4.10;99.90;;;;;;5012841;28;20519;-69
2021/03/24 07:24:20;;;;;;;15.00;10.63;;;4.10;99.90;;;;;;5029707;28;20550;-68
2021/03/24 07:26:54;;;;;;;20.67;10.77;;;4.20;99.90;;;;;;5023601;28;20771;-67
2021/03/24 07:29:57;;;;;;;20.37;11.20;;;4.40;99.90;;;;;;5029652;28;21043;-66
2021/03/24 07:32:47;;;;;;;17.90;10.10;;;4.50;99.90;;;;;;5030120;28;20815;-70
2021/03/24 07:35:37;;;;;;;19.57;10.17;;;4.60;99.90;;;;;;5030042;28;20560;-66
2021/03/24 07:38:06;;;;;;;19.53;10.67;;;4.70;99.90;;;;;;5026991;28;20472;-68
2021/03/24 07:40:52;;;;;;;15.73;10.30;;;4.70;99.90;;;;;;5029838;28;20939;-68
2021/03/24 07:43:32;;;;;;;20.30;11.80;;;4.90;99.90;;;;;;5028723;28;20418;-68
2021/03/24 07:46:17;;;;;;;17.93;10.67;;;5.10;99.90;;;;;;5027694;28;20799;-67
2021/03/24 07:49:10;;;;;;;20.67;11.63;;;5.30;99.90;;;;;;5030215;28;20900;-68
2021/03/24 07:51:54;;;;;;;19.10;11.37;;;5.40;99.90;;;;;;5029828;28;20410;-66
2021/03/24 07:54:29;;;;;;;18.37;12.00;;;5.50;99.90;;;;;;5029817;28;20410;-66
2021/03/24 07:57:19;;;;;;;18.27;11.50;;;5.50;99.90;;;;;;5029924;28;20589;-66
2021/03/24 07:59:55;;;;;;;17.77;11.70;;;5.60;99.90;;;;;;5002463;28;20420;-66
2021/03/24 08:02:36;;;;;;;16.80;11.47;;;5.70;99.90;;;;;;5032695;28;20418;-66
2021/03/24 08:05:35;;;;;;;17.13;11.30;;;5.80;99.90;;;;;;5033941;28;20768;-68
2021/03/24 08:08:07;;;;;;;16.10;11.67;;;5.90;99.90;;;;;;5033501;28;20410;-68
2021/03/24 08:11:03;;;;;;;16.37;11.37;;;6.10;99.90;;;;;;5033425;28;20499;-69
2021/03/24 08:13:46;;;;;;;18.13;12.40;;;6.20;99.90;;;;;;5033483;28;20406;-69
2021/03/24 08:16:30;;;;;;;17.87;12.13;;;6.30;99.90;;;;;;5033598;28;20478;-68
2021/03/24 08:19:24;;;;;;;20.93;11.63;;;6.30;99.90;;;;;;5033185;28;20569;-65
2021/03/24 08:22:14;;;;;;;19.73;12.00;;;6.50;99.90;;;;;;5033272;28;20441;-68
2021/03/24 08:24:49;;;;;;;19.50;13.17;;;6.60;99.90;;;;;;5013328;28;20461;-66
2021/03/24 08:27:29;;;;;;;20.33;12.47;;;6.60;99.90;;;;;;5033094;28;20735;-68
2021/03/24 08:30:20;;;;;;;19.30;12.83;;;6.70;99.90;;;;;;5015226;28;20426;-68
2021/03/24 08:32:58;;;;;;;20.50;13.57;;;6.60;99.90;;;;;;5033189;28;20904;-68
2021/03/24 08:35:51;;;;;;;18.77;12.43;;;6.60;99.90;;;;;;5033201;28;20437;-68
2021/03/24 08:38:28;;;;;;;17.37;11.33;;;6.60;99.90;;;;;;5016975;28;20484;-66
2021/03/24 08:41:21;;;;;;;19.03;12.40;;;6.50;99.90;;;;;;5013240;28;20415;-68
2021/03/24 08:44:11;;;;;;;20.60;12.47;;;6.60;99.90;;;;;;5013217;28;20526;-65
2021/03/24 08:46:53;;;;;;;16.13;11.37;;;6.60;99.90;;;;;;5013176;28;20412;-67
2021/03/24 08:49:34;;;;;;;18.50;11.60;;;6.80;99.90;;;;;;5013094;28;20423;-68
2021/03/24 08:52:18;;;;;;;16.40;12.07;;;7.00;99.90;;;;;;5012917;28;20419;-68
2021/03/24 08:55:25;;;;;;;19.87;12.40;;;7.10;99.90;;;;;;5013073;28;20411;-66
2021/03/24 08:58:07;;;;;;;19.73;12.90;;;7.10;99.90;;;;;;4952566;29;20832;-70
2021/03/24 09:00:44;;;;;;;18.20;11.43;;;7.10;99.90;;;;;;5006657;28;20427;-69
2021/03/24 09:03:22;;;;;;;17.87;12.60;;;7.30;99.90;;;;;;5012893;28;20446;-69
2021/03/24 09:06:17;;;;;;;19.80;12.40;;;7.30;99.90;;;;;;5012966;28;20426;-70
2021/03/24 09:08:55;;;;;;;25.07;13.47;;;7.30;99.90;;;;;;5012488;28;20431;-66
2021/03/24 09:11:30;;;;;;;23.00;13.13;;;7.30;99.90;;;;;;4993953;28;20435;-68
2021/03/24 09:14:13;;;;;;;18.00;11.97;;;7.30;99.90;;;;;;5012610;28;20423;-66
2021/03/24 09:17:11;;;;;;;18.50;13.93;;;7.40;99.90;;;;;;5012490;28;20508;-68
2021/03/24 09:20:07;;;;;;;20.40;13.27;;;7.50;99.90;;;;;;5012086;28;20407;-67
2021/03/24 09:23:10;;;;;;;22.97;14.33;;;7.80;99.90;;;;;;5012346;28;20443;-68
2021/03/24 09:25:50;;;;;;;19.27;13.80;;;7.90;99.90;;;;;;5012179;28;20951;-67
2021/03/24 09:28:20;;;;;;;19.20;13.33;;;8.10;99.90;;;;;;5012588;28;20463;-66
2021/03/24 09:31:04;;;;;;;20.47;13.40;;;8.10;99.90;;;;;;5012415;28;20507;-66
2021/03/24 09:33:49;;;;;;;20.70;13.43;;;8.00;99.90;;;;;;5012570;28;20403;-68
2021/03/24 09:36:48;;;;;;;21.37;14.70;;;8.00;99.90;;;;;;5012338;28;20521;-66
2021/03/24 09:39:24;;;;;;;18.60;14.67;;;8.10;99.90;;;;;;4993730;28;20857;-68
2021/03/24 09:42:08;;;;;;;18.87;14.83;;;8.10;99.90;;;;;;4992450;28;20420;-66
2021/03/24 09:44:53;;;;;;;20.53;15.63;;;8.20;99.90;;;;;;4992478;28;20423;-66
2021/03/24 09:47:28;;;;;;;20.80;14.77;;;8.30;99.90;;;;;;4992687;28;20500;-68
2021/03/24 09:50:01;;;;;;;21.77;15.30;;;8.40;99.90;;;;;;4992589;28;20531;-68
2021/03/24 09:52:44;;;;;;;24.70;19.10;;;8.30;99.90;;;;;;4992584;28;20439;-70
2021/03/24 09:55:21;;;;;;;22.33;16.73;;;8.40;99.90;;;;;;4992302;28;20427;-67
2021/03/24 09:58:16;;;;;;;24.73;17.83;;;8.50;99.90;;;;;;4991932;28;20467;-69
2021/03/24 10:01:25;;;;;;;23.00;15.50;;;8.70;99.90;;;;;;4992308;28;20431;-66
2021/03/24 10:04:41;;;;;;;26.33;17.20;;;8.70;99.90;;;;;;4917757;29;20435;-67
2021/03/24 10:07:14;;;;;;;24.43;16.90;;;8.80;99.90;;;;;;4912780;29;20440;-68
2021/03/24 10:09:55;;;;;;;21.27;17.10;;;9.00;99.90;;;;;;5005326;28;20419;-69
2021/03/24 10:12:33;;;;;;;23.97;15.57;;;9.20;99.90;;;;;;5011570;28;20454;-68
2021/03/24 10:15:08;;;;;;;19.83;14.20;;;9.50;99.90;;;;;;5011657;28;20990;-69
2021/03/24 10:17:51;;;;;;;19.83;15.50;;;9.60;99.90;;;;;;5011198;28;20453;-69
2021/03/24 10:20:26;;;;;;;21.07;16.53;;;9.50;99.90;;;;;;5008800;28;20507;-67
2021/03/24 10:22:58;;;;;;;21.10;15.37;;;9.50;99.90;;;;;;4991758;28;20796;-66
2021/03/24 10:25:43;;;;;;;16.03;11.53;;;9.60;99.90;;;;;;4991011;28;20413;-68
2021/03/24 10:28:17;;;;;;;19.10;12.73;;;9.70;98.60;;;;;;4991064;28;20409;-65
2021/03/24 10:30:55;;;;;;;18.93;13.47;;;9.70;97.80;;;;;;4991425;28;20431;-68
2021/03/24 10:33:56;;;;;;;20.77;15.37;;;9.90;99.20;;;;;;4991603;28;20446;-69
2021/03/24 10:36:26;;;;;;;15.30;10.90;;;10.10;98.90;;;;;;4929691;29;20446;-68
2021/03/24 10:39:02;;;;;;;17.50;12.60;;;10.00;96.30;;;;;;4997057;28;20215;-68
2021/03/24 10:41:50;;;;;;;19.03;13.27;;;10.00;97.60;;;;;;5010645;28;20441;-67
2021/03/24 10:44:47;;;;;;;17.17;12.30;;;10.20;97.70;;;;;;5010915;28;20420;-67
2021/03/24 10:47:15;;;;;;;14.47;11.67;;;10.40;95.50;;;;;;5011221;28;20533;-68
2021/03/24 10:49:53;;;;;;;15.10;11.70;;;10.50;94.50;;;;;;4992916;28;20216;-69
2021/03/24 10:52:26;;;;;;;17.83;11.57;;;10.50;94.40;;;;;;5011330;28;20413;-70
2021/03/24 10:55:02;;;;;;;18.17;11.90;;;10.70;93.40;;;;;;5010821;28;20635;-69
2021/03/24 10:57:31;;;;;;;17.53;11.70;;;10.80;93.40;;;;;;5010586;28;20215;-67
2021/03/24 11:00:21;;;;;;;14.70;11.13;;;10.90;93.70;;;;;;5010512;28;20176;-68
2021/03/24 11:03:00;;;;;;;14.90;10.90;;;11.00;93.70;;;;;;5010599;28;20249;-69
2021/03/24 11:05:39;;;;;;;16.27;11.77;;;11.20;93.30;;;;;;5010617;28;20168;-70
2021/03/24 11:08:18;;;;;;;17.20;11.53;;;11.30;91.60;;;;;;5010297;28;20307;-68
2021/03/24 11:10:58;;;;;;;16.57;11.53;;;11.40;91.50;;;;;;5010619;28;20233;-68
2021/03/24 11:13:31;;;;;;;15.03;11.67;;;11.20;91.70;;;;;;5010742;28;20183;-69
2021/03/24 11:15:56;;;;;;;17.93;13.03;;;11.30;93.00;;;;;;5010151;28;20176;-68
2021/03/24 11:18:30;;;;;;;17.80;11.63;;;11.50;91.80;;;;;;5010710;28;20191;-67
2021/03/24 11:20:59;;;;;;;17.67;11.90;;;11.80;90.50;;;;;;4992815;28;20181;-69
2021/03/24 11:23:34;;;;;;;17.10;11.43;;;11.90;90.20;;;;;;5010589;28;20176;-67
2021/03/24 11:26:47;;;;;;;22.47;12.77;;;12.00;86.60;;;;;;5010570;28;20232;-68
2021/03/24 11:29:19;;;;;;;20.83;11.60;;;12.10;87.30;;;;;;5010191;28;20180;-67
2021/03/24 11:32:32;;;;;;;15.63;12.07;;;12.30;90.60;;;;;;5010335;28;20256;-67
2021/03/24 11:35:17;;;;;;;16.57;12.60;;;12.40;87.70;;;;;;4950465;28;20623;-67
2021/03/24 11:37:46;;;;;;;17.27;13.07;;;12.60;88.60;;;;;;4946022;28;20215;-69
2021/03/24 11:40:41;;;;;;;20.20;13.03;;;12.90;86.50;;;;;;4934697;29;20646;-70
2021/03/24 11:43:16;;;;;;;18.77;12.70;;;13.10;82.70;;;;;;4934086;29;20270;-69
2021/03/24 11:45:44;;;;;;;17.70;13.40;;;13.40;81.00;;;;;;4934725;29;20214;-69
2021/03/24 11:48:30;;;;;;;19.97;13.87;;;13.30;79.10;;;;;;4934635;29;20673;-70
2021/03/24 11:51:15;;;;;;;21.60;13.80;;;13.40;80.00;;;;;;4934219;29;20183;-67
2021/03/24 11:54:15;;;;;;;17.43;12.37;;;13.30;80.40;;;;;;4918289;29;20252;-68
2021/03/24 11:57:25;;;;;;;17.07;12.23;;;13.60;77.70;;;;;;4930059;29;21526;-68
2021/03/24 12:00:11;;;;;;;18.63;13.10;;;13.80;73.80;;;;;;4859258;29;20266;-68
2021/03/24 12:02:49;;;;;;;19.97;12.90;;;13.90;74.20;;;;;;4928509;29;20573;-68
2021/03/24 12:05:24;;;;;;;19.67;14.47;;;14.10;76.40;;;;;;4957246;28;20551;-69
2021/03/24 12:08:08;;;;;;;18.53;13.97;;;14.40;73.60;;;;;;5013891;28;20198;-68
2021/03/24 12:10:41;;;;;;;22.87;14.17;;;14.50;72.80;;;;;;5013474;28;20176;-68
2021/03/24 12:13:20;;;;;;;16.17;12.40;;;14.70;72.50;;;;;;4994452;28;20185;-67
2021/03/24 12:16:07;;;;;;;18.23;11.50;;;15.40;68.80;;;;;;4993524;28;20208;-67
2021/03/24 12:18:53;;;;;;;19.47;14.27;;;15.60;68.00;;;;;;4993752;28;20201;-68
2021/03/24 12:21:35;;;;;;;17.57;12.80;;;15.70;66.90;;;;;;4994161;28;20260;-67
2021/03/24 12:24:21;;;;;;;19.77;13.00;;;15.80;65.20;;;;;;4994056;28;20177;-68
2021/03/24 12:26:47;;;;;;;18.70;12.50;;;16.20;63.60;;;;;;4993113;28;20213;-68
2021/03/24 12:29:22;;;;;;;16.93;11.87;;;16.40;58.80;;;;;;4993940;28;20209;-67
2021/03/24 12:31:54;;;;;;;15.07;11.63;;;16.50;60.60;;;;;;4994129;28;20192;-67
2021/03/24 12:34:21;;;;;;;16.87;11.87;;;16.70;61.10;;;;;;4993877;28;21252;-70
2021/03/24 12:36:58;;;;;;;14.97;11.33;;;17.20;59.20;;;;;;4995436;28;20197;-68
2021/03/24 12:39:41;;;;;;;17.67;12.33;;;16.90;56.80;;;;;;4993924;28;20631;-67
2021/03/24 12:42:20;;;;;;;16.33;12.23;;;17.10;56.40;;;;;;5012686;28;20179;-69
2021/03/24 12:44:46;;;;;;;16.00;11.70;;;17.10;55.80;;;;;;5013439;28;20172;-70
2021/03/24 12:47:39;;;;;;;13.07;10.73;;;17.70;55.70;;;;;;5012709;28;20180;-69
2021/03/24 12:50:16;;;;;;;14.97;11.37;;;18.30;55.50;;;;;;5012925;28;20181;-67
2021/03/24 12:53:28;;;;;;;17.17;12.97;;;19.00;51.70;;;;;;5013121;28;20318;-69
2021/03/24 12:56:12;;;;;;;16.97;12.20;;;18.90;51.00;;;;;;4914399;29;20270;-69
2021/03/24 12:58:46;;;;;;;17.37;12.43;;;19.00;50.20;;;;;;5012090;28;20193;-68
2021/03/24 13:01:39;;;;;;;17.60;11.20;;;19.00;49.30;;;;;;5012658;28;20190;-69
2021/03/24 13:04:32;;;;;;;16.37;11.70;;;18.60;51.30;;;;;;4995191;28;20196;-67
2021/03/24 13:07:18;;;;;;;15.97;11.83;;;18.50;52.40;;;;;;5010722;28;20177;-66
2021/03/24 13:09:50;;;;;;;15.87;12.13;;;18.10;51.40;;;;;;5012129;28;20665;-68
2021/03/24 13:12:20;;;;;;;16.50;11.63;;;18.20;52.00;;;;;;4995258;28;20550;-66
2021/03/24 13:15:30;;;;;;;16.17;11.73;;;18.00;51.00;;;;;;5012137;28;20299;-67
2021/03/24 13:18:25;;;;;;;15.50;11.13;;;17.90;52.80;;;;;;5012701;28;20250;-69
2021/03/24 13:21:08;;;;;;;15.57;10.97;;;18.40;52.80;;;;;;5012654;28;20176;-67
2021/03/24 13:24:08;;;;;;;18.37;11.83;;;18.70;50.10;;;;;;4994691;28;20210;-68
2021/03/24 13:26:38;;;;;;;14.13;11.20;;;19.20;50.80;;;;;;5012350;28;20249;-67
2021/03/24 13:29:13;;;;;;;16.73;12.00;;;19.40;48.90;;;;;;5012660;28;20250;-68
2021/03/24 13:31:56;;;;;;;13.50;10.33;;;19.70;48.90;;;;;;5012254;28;20172;-68
2021/03/24 13:34:43;;;;;;;13.40;9.97;;;19.80;46.30;;;;;;5012435;28;20250;-68
2021/03/24 13:37:15;;;;;;;13.60;10.17;;;19.50;45.80;;;;;;5013555;28;20591;-67
2021/03/24 13:40:21;;;;;;;15.00;11.97;;;19.40;47.70;;;;;;5012494;28;20200;-67